createdAt,value
2019-04-12T00:19:07.394Z,40.8
2019-04-12T00:29:21.447Z,41.0
2019-04-12T00:40:12.972Z,40.9
2019-04-12T00:50:31.316Z,40.8
2019-04-12T01:00:48.109Z,40.9
2019-04-12T01:10:56.478Z,41.2
2019-04-12T01:21:10.501Z,41.2
2019-04-12T01:32:07.895Z,41.3
2019-04-12T01:43:12.180Z,41.4
2019-04-12T01:53:25.673Z,41.4
2019-04-12T02:03:39.017Z,41.6
2019-04-12T02:13:53.494Z,41.5
2019-04-12T02:24:07.473Z,41.7
2019-04-12T02:34:18.957Z,41.5
2019-04-12T02:44:31.718Z,41.8
2019-04-12T02:54:43.369Z,42.0
2019-04-12T03:05:28.750Z,42.3
2019-04-12T03:15:43.138Z,42.4
2019-04-12T03:26:06.778Z,42.6
2019-04-12T03:36:31.930Z,42.9
2019-04-12T03:46:45.135Z,42.9
2019-04-12T03:56:57.109Z,42.9
2019-04-12T04:08:37.336Z,43.5
2019-04-12T04:18:53.022Z,43.0
2019-04-12T04:30:52.571Z,43.2
2019-04-12T04:41:07.688Z,43.4
2019-04-12T04:51:21.833Z,43.8
2019-04-12T05:01:35.476Z,43.7
2019-04-12T05:11:50.160Z,43.7
2019-04-12T05:22:35.589Z,43.9
2019-04-12T05:32:49.444Z,43.7
2019-04-12T05:43:03.660Z,44.5
2019-04-12T05:53:18.133Z,45.1
2019-04-12T06:03:44.829Z,45.4
2019-04-12T06:13:56.102Z,46.3
2019-04-12T06:24:09.553Z,46.5
2019-04-12T06:34:51.624Z,46.1
2019-04-12T06:45:05.174Z,46.1
2019-04-12T06:55:17.561Z,45.6
2019-04-12T07:06:04.763Z,46.7
2019-04-12T07:16:50.484Z,47.7
2019-04-12T07:27:03.848Z,47.9
2019-04-12T07:37:15.314Z,48.5
2019-04-12T07:47:29.573Z,48.4
2019-04-12T07:58:15.185Z,48.5
2019-04-12T08:08:28.806Z,48.9
2019-04-12T08:18:42.940Z,49.0
2019-04-12T08:29:27.831Z,47.7
2019-04-12T08:39:41.943Z,43.8
2019-04-12T08:49:56.250Z,43.2
2019-04-12T09:00:10.655Z,43.5
2019-04-12T09:10:22.880Z,43.7
2019-04-12T09:20:37.132Z,45.1
2019-04-12T09:30:51.420Z,41.8
2019-04-12T09:41:51.516Z,38.6
2019-04-12T09:52:04.939Z,37.4
2019-04-12T10:02:18.370Z,33.7
2019-04-12T10:12:29.993Z,32.5
2019-04-12T10:22:43.900Z,33.6
2019-04-12T10:32:58.567Z,34.6
2019-04-12T10:43:44.285Z,35.1
2019-04-12T10:53:58.312Z,34.9
2019-04-12T11:04:28.289Z,35.0
2019-04-12T11:14:42.527Z,35.3
2019-04-12T11:25:29.491Z,35.5
2019-04-12T11:35:39.589Z,35.8
2019-04-12T11:46:36.398Z,36.0
2019-04-12T11:56:38.039Z,35.8
2019-04-12T12:07:23.456Z,36.2
2019-04-12T12:17:37.675Z,36.0
2019-04-12T12:28:59.215Z,36.0
2019-04-12T12:40:14.547Z,36.0
2019-04-12T12:50:29.186Z,36.2
2019-04-12T13:01:43.253Z,36.3
2019-04-12T13:12:53.483Z,36.5
2019-04-12T13:23:07.742Z,36.7
2019-04-12T13:33:53.388Z,36.7
2019-04-12T13:44:38.592Z,36.9
2019-04-12T13:56:41.534Z,36.9
2019-04-12T14:08:54.647Z,37.3
2019-04-12T14:19:10.179Z,37.5
2019-04-12T14:29:20.814Z,37.7
2019-04-12T14:40:11.579Z,37.9
2019-04-12T14:50:26.022Z,38.0
2019-04-12T15:01:11.746Z,37.9
2019-04-12T15:11:59.923Z,37.3
2019-04-12T15:22:13.150Z,36.6
2019-04-12T15:32:30.830Z,37.7
2019-04-12T15:43:16.391Z,38.2
2019-04-12T15:53:31.220Z,39.2
2019-04-12T16:03:44.993Z,39.2
2019-04-12T16:13:59.129Z,39.8
2019-04-12T16:24:47.057Z,40.1
2019-04-12T16:35:32.548Z,39.7
2019-04-12T16:46:18.988Z,39.8
2019-04-12T16:59:25.385Z,40.1
2019-04-12T17:10:59.479Z,40.4
2019-04-12T17:23:44.813Z,40.6
2019-04-12T17:34:52.076Z,40.9
2019-04-12T17:46:12.773Z,41.2
2019-04-12T17:56:55.117Z,41.0
2019-04-12T18:09:31.212Z,41.2
2019-04-12T18:53:13.786Z,41.9
2019-04-12T19:05:03.719Z,42.0
2019-04-12T19:15:25.459Z,42.3
2019-04-12T19:25:56.198Z,42.4
2019-04-12T19:37:08.596Z,42.7
2019-04-12T19:48:36.240Z,43.2
2019-04-12T19:58:50.160Z,43.3
2019-04-12T20:09:48.993Z,43.6
2019-04-12T20:20:34.329Z,44.0
2019-04-12T20:30:49.831Z,44.2
2019-04-12T20:41:03.959Z,44.1
2019-04-12T20:52:08.083Z,44.3
2019-04-12T21:02:52.734Z,44.5
2019-04-12T21:13:06.273Z,44.3
2019-04-12T21:23:20.245Z,44.3
2019-04-12T21:33:33.624Z,44.3
2019-04-12T21:43:48.176Z,44.6
2019-04-12T21:53:59.627Z,44.8
2019-04-12T22:04:11.718Z,44.7
2019-04-12T22:14:25.608Z,44.9
2019-04-12T22:24:36.879Z,44.8
2019-04-12T22:35:22.420Z,44.6
2019-04-12T22:45:35.586Z,44.7
2019-04-12T22:55:49.032Z,44.8
2019-04-12T23:06:02.247Z,44.9
2019-04-12T23:16:47.359Z,44.9
2019-04-12T23:26:58.212Z,45.0
2019-04-12T23:37:11.791Z,45.0
2019-04-12T23:47:26.012Z,45.0
2019-04-12T23:59:03.020Z,45.2
